Latest Weather Observations for Rottnest Island

IDW60801

Issued at 2:12 pm WST Tuesday 26 March 2019 (issued every 10 minutes, with the page automatically refreshed every 10 minutes)

About weather observations | Map of weather stations | Latest weather observations for WA | Other Formats
Station Details ID: 009193 Name: ROTTNEST ISLAND Lat: -32.01 Lon: 115.50 Height: 43.1 m
Data from the previous 72 hours. | See also: Recent months at Rottnest Island
Date/Time
WST
Temp
°C
App
Temp
°C
Dew
Point
°C
Rel
Hum
%
Delta-T
°C
Wind Press
QNH
hPa
Press
MSL
hPa
Rain since
9am
mm
Dir  Spd
km/h
Gust
km/h
Spd
kts
Gust
kts
26/02:00pm 30.3 26.4 6.9 23 12.6 SE 17 24 9 13 1015.1 1014.9 0.0
26/01:30pm 29.1 24.6 5.9 23 12.2 E 19 26 10 14 1015.5 1015.3 0.0
26/01:00pm 28.6 24.2 6.7 25 11.6 E 19 30 10 16 1015.9 1015.7 0.0
26/12:30pm 27.6 22.7 6.9 27 11.0 ENE 22 30 12 16 1016.3 1016.1 0.0
26/12:00pm 26.6 21.3 6.6 28 10.5 ENE 24 32 13 17 1016.7 1016.5 0.0
26/11:30am 26.8 21.9 8.3 31 10.0 ENE 24 33 13 18 1017.2 1017.0 0.0
26/11:00am 26.1 21.6 8.6 33 9.5 NE 22 32 12 17 1017.4 1017.2 0.0
26/10:30am 25.7 21.8 9.5 36 8.9 ENE 20 30 11 16 1017.8 1017.6 0.0
26/10:00am 23.8 18.8 8.2 37 8.3 ENE 24 33 13 18 1017.9 1017.7 0.0
26/09:30am 21.9 17.5 9.1 44 6.8 ENE 22 32 12 17 1018.0 1017.8 0.0
26/09:00am 20.9 15.5 8.2 44 6.6 E 26 33 14 18 1018.4 1018.2 0.0
26/08:30am 20.4 15.9 8.4 46 6.3 ENE 22 33 12 18 1018.6 1018.4 0.0
26/08:00am 19.4 14.4 8.1 48 5.8 E 24 33 13 18 1018.8 1018.6 0.0
26/07:30am 18.8 14.6 8.2 50 5.5 E 20 35 11 19 1018.7 1018.5 0.0
26/07:00am 18.3 13.4 8.3 52 5.1 E 24 30 13 16 1018.5 1018.3 0.0
26/06:30am 17.9 13.2 7.9 52 5.1 E 22 30 12 16 1018.4 1018.2 0.0
26/06:00am 17.9 13.5 7.6 51 5.2 E 20 26 11 14 1018.3 1018.1 0.0
26/05:30am 18.4 13.6 7.5 49 5.5 E 22 28 12 15 1018.0 1017.8 0.0
26/05:00am 18.8 14.6 7.3 47 5.8 E 19 24 10 13 1018.0 1017.8 0.0
26/04:30am 19.6 15.5 8.0 47 6.0 ENE 19 28 10 15 1017.8 1017.6 0.0
26/04:00am 20.1 15.2 7.1 43 6.6 ENE 22 32 12 17 1017.6 1017.4 0.0
26/03:30am 20.4 14.8 7.1 42 6.8 E 26 35 14 19 1017.3 1017.1 0.0
26/03:00am 20.6 15.4 7.2 42 6.8 E 24 35 13 19 1017.4 1017.2 0.0
26/02:30am 20.8 15.1 6.7 40 7.2 E 26 37 14 20 1017.7 1017.5 0.0
26/02:00am 20.7 15.9 7.3 42 6.9 E 22 28 12 15 1018.0 1017.8 0.0
26/01:30am 21.0 16.1 6.9 40 7.2 E 22 28 12 15 1018.2 1018.0 0.0
26/01:00am 21.1 16.7 7.3 41 7.1 E 20 28 11 15 1018.2 1018.0 0.0
26/12:30am 21.4 17.0 7.3 40 7.3 E 20 28 11 15 1018.2 1018.0 0.0
26/12:00am 21.5 17.0 7.0 39 7.4 E 20 28 11 15 1018.5 1018.3 0.0
 
Date/Time
WST
Temp
°C
App
Temp
°C
Dew
Point
°C
Rel
Hum
%
Delta-T
°C
Wind Press
QNH
hPa
Press
MSL
hPa
Rain since
9am
mm
Dir  Spd
km/h
Gust
km/h
Spd
kts
Gust
kts
25/11:30pm 21.3 17.7 8.2 43 6.9 E 17 20 9 11 1018.5 1018.3 0.0
25/11:00pm 21.3 18.7 10.8 51 5.8 ESE 15 19 8 10 1018.5 1018.3 0.0
25/10:30pm 21.4 18.2 9.9 48 6.2 ESE 17 20 9 11 1018.6 1018.4 0.0
25/10:00pm 21.7 18.7 10.8 50 6.0 ESE 17 20 9 11 1018.6 1018.4 0.0
25/09:30pm 21.9 18.9 10.7 49 6.2 ESE 17 24 9 13 1018.8 1018.6 0.0
25/09:00pm 22.4 19.3 10.2 46 6.7 ESE 17 22 9 12 1018.7 1018.5 0.0
25/08:30pm 22.2 19.2 10.7 48 6.3 ESE 17 24 9 13 1018.7 1018.5 0.0
25/08:00pm 21.3 19.2 14.7 66 3.9 SE 19 26 10 14 1018.4 1018.2 0.0
25/07:30pm 21.0 18.8 17.0 78 2.4 SSE 24 28 13 15 1018.2 1018.0 0.0
25/07:00pm 20.8 16.9 16.4 76 2.7 S 32 39 17 21 1017.6 1017.4 0.0
25/06:30pm 21.0 16.7 15.8 72 3.1 S 33 39 18 21 1017.2 1017.0 0.0
25/06:00pm 20.8 16.4 15.1 70 3.4 S 32 39 17 21 1017.3 1017.1 0.0
25/05:30pm 21.4 17.1 15.3 68 3.6 S 32 39 17 21 1017.5 1017.3 0.0
25/05:00pm 21.6 16.9 14.3 63 4.3 S 32 39 17 21 1017.4 1017.2 0.0
25/04:30pm 22.6 18.3 13.1 55 5.5 SSW 28 32 15 17 1017.4 1017.2 0.0
25/04:00pm 22.8 19.1 12.7 53 5.8 SSW 24 30 13 16 1017.3 1017.1 0.0
25/03:30pm 23.4 19.7 11.5 47 6.7 S 22 26 12 14 1017.6 1017.4 0.0
25/03:00pm 23.8 20.1 9.4 40 7.8 SSE 19 20 10 11 1017.7 1017.5 0.0
25/02:30pm 24.0 20.0 9.2 39 8.0 SSE 20 24 11 13 1017.8 1017.6 0.0
25/02:00pm 23.9 19.7 8.3 37 8.3 SSE 20 26 11 14 1018.0 1017.8 0.0
25/01:30pm 23.8 19.8 8.2 37 8.3 ESE 19 28 10 15 1018.5 1018.3 0.0
25/01:00pm 22.9 18.0 7.1 36 8.2 ESE 22 32 12 17 1018.8 1018.6 0.0
25/12:30pm 22.8 17.5 7.0 36 8.2 E 24 33 13 18 1019.2 1019.0 0.0
25/12:00pm 21.8 16.9 6.9 38 7.6 ESE 22 33 12 18 1019.6 1019.4 0.0
25/11:30am 21.3 16.9 7.2 40 7.2 E 20 32 11 17 1020.0 1019.8 0.0
25/11:00am 20.3 14.7 7.0 42 6.7 E 26 37 14 20 1020.4 1020.2 0.0
25/10:30am 19.3 13.8 7.4 46 6.1 ENE 26 35 14 19 1020.8 1020.6 0.0
25/10:00am 18.0 12.8 7.4 50 5.3 ENE 24 39 13 21 1021.2 1021.0 0.0
25/09:30am 17.3 11.4 7.4 52 5.0 E 28 41 15 22 1021.3 1021.1 0.0
25/09:00am 16.8 10.8 7.2 53 4.8 E 28 44 15 24 1021.6 1021.4 0.0
25/08:30am 16.2 10.2 7.2 55 4.5 ENE 28 39 15 21 1021.3 1021.1 0.0
25/08:00am 15.7 10.2 7.5 58 4.1 ENE 26 37 14 20 1021.4 1021.2 0.0
25/07:30am 15.3 9.7 7.3 59 4.0 E 26 35 14 19 1021.4 1021.2 0.0
25/07:00am 14.8 9.3 7.4 61 3.6 E 26 37 14 20 1021.3 1021.1 0.0
25/06:30am 14.4 7.9 6.7 60 3.7 E 30 43 16 23 1021.1 1020.9 0.0
25/06:00am 14.3 9.0 6.9 61 3.6 E 24 37 13 20 1020.9 1020.7 0.0
25/05:30am 14.4 9.2 7.2 62 3.5 E 24 35 13 19 1020.6 1020.4 0.0
25/05:00am 14.4 8.7 6.7 60 3.7 E 26 35 14 19 1020.0 1019.8 0.0
25/04:37am 14.5 8.4 6.8 60 3.7 E 28 46 15 25 1019.9 1019.7 0.0
25/04:30am 14.7 7.9 7.0 60 3.8 E 32 44 17 24 1020.0 1019.8 0.0
25/04:00am 14.7 9.1 7.0 60 3.8 E 26 37 14 20 1019.8 1019.6 0.0
25/03:30am 15.0 8.6 6.8 58 4.0 E 30 43 16 23 1019.3 1019.1 0.0
25/03:00am 15.3 10.1 7.3 59 3.9 ESE 24 35 13 19 1019.2 1019.0 0.0
25/02:30am 15.8 10.6 7.3 57 4.2 ESE 24 35 13 19 1018.9 1018.7 0.0
25/02:00am 16.4 10.4 7.1 54 4.6 ESE 28 39 15 21 1019.0 1018.8 0.0
25/01:30am 17.1 10.8 7.5 53 4.8 ESE 30 43 16 23 1018.9 1018.7 0.0
25/01:00am 17.6 12.4 7.4 51 5.1 ESE 24 37 13 20 1019.0 1018.8 0.0
25/12:30am 18.2 12.3 7.3 49 5.5 ESE 28 39 15 21 1018.9 1018.7 0.0
25/12:00am 18.8 12.5 7.6 48 5.7 ESE 30 41 16 22 1018.5 1018.3 0.0
 
Date/Time
WST
Temp
°C
App
Temp
°C
Dew
Point
°C
Rel
Hum
%
Delta-T
°C
Wind Press
QNH
hPa
Press
MSL
hPa
Rain since
9am
mm
Dir  Spd
km/h
Gust
km/h
Spd
kts
Gust
kts
24/11:30pm 19.3 13.8 7.7 47 5.9 ESE 26 43 14 23 1018.2 1018.0 0.0
24/11:09pm 19.7 13.5 7.8 46 6.1 ESE 30 48 16 26 1018.2 1018.0 0.0
24/11:00pm 19.8 14.0 7.9 46 6.1 ESE 28 41 15 22 1018.3 1018.1 0.0
24/10:30pm 20.0 15.5 8.7 48 5.9 SE 22 37 12 20 1018.1 1017.9 0.0
24/10:00pm 20.7 15.8 9.9 50 5.8 SE 26 39 14 21 1017.8 1017.6 0.0
24/09:46pm 20.9 15.4 9.2 47 6.2 SE 28 46 15 25 1017.9 1017.7 0.0
24/09:30pm 21.4 15.2 9.3 46 6.5 SE 32 46 17 25 1017.7 1017.5 0.0
24/09:00pm 21.7 16.8 11.4 52 5.7 SE 28 41 15 22 1017.7 1017.5 0.0
24/08:30pm 21.4 16.9 15.5 69 3.5 SSE 33 39 18 21 1017.3 1017.1 0.0
24/08:00pm 21.1 16.8 15.9 72 3.1 S 33 43 18 23 1017.0 1016.8 0.0
24/07:30pm 20.8 15.1 15.1 70 3.4 S 39 50 21 27 1016.4 1016.2 0.0
24/07:00pm 20.4 14.1 14.5 69 3.4 S 41 50 22 27 1016.2 1016.0 0.0
24/06:30pm 20.2 13.2 14.3 69 3.4 S 44 52 24 28 1016.0 1015.8 0.0
24/06:00pm 20.4 13.5 14.1 67 3.6 S 43 54 23 29 1016.0 1015.8 0.0
24/05:30pm 20.5 13.7 13.0 62 4.3 SSW 41 50 22 27 1015.7 1015.5 0.0
24/05:00pm 20.7 14.1 13.6 64 4.1 SSW 41 48 22 26 1015.9 1015.7 0.0
24/04:30pm 21.0 15.0 13.4 62 4.4 SSW 37 48 20 26 1016.1 1015.9 0.0
24/04:00pm 20.7 14.6 12.9 61 4.4 SSW 37 48 20 26 1016.1 1015.9 0.0
24/03:30pm 21.0 14.8 12.7 59 4.7 SSW 37 46 20 25 1016.4 1016.2 0.0
24/03:00pm 20.8 14.6 12.5 59 4.7 SSW 37 44 20 24 1016.6 1016.4 0.0
24/02:30pm 21.0 15.2 12.7 59 4.7 SSW 35 41 19 22 1016.9 1016.7 0.0
24/02:00pm 20.6 14.8 12.6 60 4.5 S 35 41 19 22 1016.7 1016.5 0.0
24/01:30pm 20.6 14.4 12.6 60 4.5 S 37 44 20 24 1017.0 1016.8 0.0
24/01:00pm 21.1 15.6 12.5 58 4.9 S 33 41 18 22 1017.5 1017.3 0.0
24/12:30pm 20.5 15.2 12.5 60 4.5 S 32 43 17 23 1017.9 1017.7 0.0
24/12:00pm 20.8 16.1 12.0 57 4.9 S 28 37 15 20 1018.3 1018.1 0.0
24/11:30am 19.9 15.5 11.7 59 4.5 S 26 33 14 18 1018.7 1018.5 0.0
24/11:00am 20.0 16.9 11.5 58 4.7 SSE 19 30 10 16 1019.5 1019.3 0.0
24/10:30am 18.8 14.8 10.4 58 4.5 SSE 22 28 12 15 1019.7 1019.5 0.0
24/10:00am 18.2 14.7 10.3 60 4.2 SE 19 24 10 13 1020.1 1019.9 0.0
24/09:30am 17.8 13.3 10.2 61 4.0 SE 24 33 13 18 1020.3 1020.1 0.0
24/09:00am 17.7 13.6 10.1 61 4.0 SE 22 33 12 18 1020.4 1020.2 0.0
24/08:30am 16.9 10.7 10.1 64 3.6 SE 33 41 18 22 1020.0 1019.8 0.0
24/08:00am 16.4 10.5 10.3 67 3.2 SSE 32 43 17 23 1019.6 1019.4 0.0
24/07:30am 16.0 9.5 10.3 69 3.0 SSE 35 46 19 25 1019.6 1019.4 0.0
24/07:00am 15.5 8.9 10.1 70 2.8 SE 35 46 19 25 1019.2 1019.0 0.0
24/06:30am 15.0 8.3 9.8 71 2.7 SE 35 44 19 24 1019.0 1018.8 0.0
24/06:00am 14.9 8.3 9.9 72 2.6 SE 35 46 19 25 1018.7 1018.5 0.0
24/05:30am 14.8 7.0 9.6 71 2.7 SE 41 52 22 28 1018.3 1018.1 0.0
24/05:00am 15.2 6.9 10.0 71 2.7 SSE 44 59 24 32 1017.7 1017.5 0.0
24/04:51am 15.2 7.5 10.0 71 2.7 SSE 41 59 22 32 1017.5 1017.3 0.0
24/04:30am 15.8 7.3 10.6 71 2.8 SSE 46 59 25 32 1017.6 1017.4 0.0
24/04:00am 15.8 7.3 10.6 71 2.8 SSE 46 57 25 31 1017.1 1016.9 0.0
24/03:30am 16.2 9.4 10.5 69 3.0 SSE 37 52 20 28 1017.3 1017.1 0.0
24/03:00am 16.2 9.0 10.7 70 2.9 SSE 39 50 21 27 1017.2 1017.0 0.0
24/02:30am 16.6 9.2 11.1 70 3.0 SSE 41 50 22 27 1017.3 1017.1 0.0
24/02:00am 16.7 9.3 11.2 70 3.0 SSE 41 56 22 30 1017.1 1016.9 0.0
24/01:30am 17.1 9.4 11.4 69 3.1 S 43 54 23 29 1016.8 1016.6 0.0
24/01:00am 17.7 9.8 11.5 67 3.4 S 44 52 24 28 1016.8 1016.6 0.0
24/12:30am 17.9 10.2 11.5 66 3.5 S 43 52 23 28 1016.7 1016.5 0.0
24/12:00am 18.3 10.8 12.1 67 3.4 S 43 52 23 28 1016.5 1016.3 0.0
 
Date/Time
WST
Temp
°C
App
Temp
°C
Dew
Point
°C
Rel
Hum
%
Delta-T
°C
Wind Press
QNH
hPa
Press
MSL
hPa
Rain since
9am
mm
Dir  Spd
km/h
Gust
km/h
Spd
kts
Gust
kts
23/11:30pm 18.7 11.7 12.5 67 3.5 S 41 48 22 26 1016.7 1016.5 0.0
23/11:00pm 18.9 11.2 11.5 62 4.1 S 43 54 23 29 1016.6 1016.4 0.0
23/10:30pm 19.4 11.4 12.4 64 3.9 S 46 59 25 32 1016.8 1016.6 0.0
23/10:00pm 20.0 10.8 13.5 66 3.7 S 54 63 29 34 1016.0 1015.8 0.0
23/09:30pm 20.3 11.9 13.5 65 3.9 S 50 61 27 33 1016.1 1015.9 0.0
23/09:00pm 20.3 12.0 13.7 66 3.8 S 50 63 27 34 1015.9 1015.7 0.0
23/08:30pm 20.3 11.7 14.0 67 3.6 S 52 63 28 34 1015.7 1015.5 0.0
23/08:00pm 20.2 11.6 12.9 63 4.1 S 50 63 27 34 1015.3 1015.1 0.0
23/07:30pm 20.2 11.8 13.4 65 3.9 S 50 61 27 33 1015.2 1015.0 0.0
23/07:00pm 20.0 11.5 13.2 65 3.9 S 50 61 27 33 1014.7 1014.5 0.0
23/06:30pm 19.8 11.7 13.3 66 3.7 S 48 57 26 31 1014.5 1014.3 0.0
23/06:00pm 19.9 11.5 13.4 66 3.7 S 50 61 27 33 1014.6 1014.4 0.0
23/05:30pm 20.1 12.3 13.1 64 4.0 S 46 59 25 32 1014.6 1014.4 0.0
23/05:00pm 20.4 12.9 12.6 61 4.4 SSW 44 56 24 30 1014.7 1014.5 0.0
23/04:30pm 20.4 12.5 12.6 61 4.4 SSW 46 54 25 29 1015.0 1014.8 0.0
23/04:00pm 20.7 13.3 12.4 59 4.7 SSW 43 56 23 30 1015.1 1014.9 0.0
23/03:30pm 21.6 14.2 12.5 56 5.2 SSW 43 52 23 28 1015.4 1015.2 0.0
23/03:00pm 21.9 14.8 13.3 58 4.9 SSW 43 52 23 28 1015.6 1015.4 0.0
23/02:30pm 21.0 13.8 11.9 56 5.1 SSW 41 50 22 27 1015.8 1015.6 0.0

Other formats

Comma delimited format used in spreadsheet applications
http://www.bom.gov.au/fwo/IDW60801/IDW60801.94602.axf

JavaScript Object Notation format (JSON) in row-major order
http://www.bom.gov.au/fwo/IDW60801/IDW60801.94602.json

Data quality

Most of these data are generated automatically and are frequently updated. Quality checks on data are not normally performed. It is possible for incorrect values to appear. Refer to information at About Latest Weather Observations and please check the disclaimer before using these data.